Time;durP1;ratioP1;P1;durP2;ratioP2;P2;SDS_P1;SDS_P2;PMS_P1;PMS_P2;Temp;Humidity;BMP_temperature;BMP_pressure;BME280_temperature;BME280_humidity;BME280_pressure;Samples;Min_cycle;Max_cycle;Signal;HPM_P1;HPM_P2
2022/04/28 00:01:41;;;;;;;14.00;7.38;;;10.10;99.90;;;10.18;81.69;102063.63;5203457;28;20525;-74
2022/04/28 00:04:13;;;;;;;13.82;7.95;;;10.10;99.90;;;10.15;81.87;102058.22;5206110;28;20053;-73
2022/04/28 00:06:45;;;;;;;13.52;8.10;;;10.10;99.90;;;10.16;82.09;102060.03;5206077;28;20049;-74
2022/04/28 00:09:17;;;;;;;15.07;7.80;;;10.10;99.90;;;10.16;82.12;102060.03;5205719;28;20041;-74
2022/04/28 00:11:51;;;;;;;15.23;8.20;;;10.10;99.90;;;10.12;82.09;102063.28;5205865;28;20045;-73
2022/04/28 00:14:23;;;;;;;16.25;7.63;;;10.10;99.90;;;10.09;82.12;102058.78;5205883;28;20149;-74
2022/04/28 00:16:55;;;;;;;14.25;7.82;;;10.00;99.90;;;10.05;82.25;102060.31;5206119;28;20380;-73
2022/04/28 00:19:27;;;;;;;14.10;8.07;;;10.00;99.90;;;10.02;82.34;102061.84;5203299;28;20045;-74
2022/04/28 00:21:59;;;;;;;17.20;9.10;;;10.00;99.90;;;9.98;82.36;102065.09;5205138;28;20046;-74
2022/04/28 00:24:31;;;;;;;16.25;8.85;;;9.90;99.90;;;9.93;82.54;102067.44;5205900;28;20049;-76
2022/04/28 00:27:05;;;;;;;15.65;8.68;;;9.90;99.90;;;9.89;82.53;102059.34;5205870;28;20041;-75
2022/04/28 00:29:37;;;;;;;17.75;9.00;;;9.80;99.90;;;9.87;82.66;102063.59;5204571;28;20129;-74
2022/04/28 00:32:10;;;;;;;17.92;9.38;;;9.80;99.90;;;9.83;83.05;102059.00;5204967;28;20041;-73
2022/04/28 00:34:42;;;;;;;17.20;8.88;;;9.80;99.90;;;9.80;82.94;102059.72;5205674;28;20050;-75
2022/04/28 00:37:14;;;;;;;13.93;8.32;;;9.70;99.90;;;9.78;83.05;102066.56;5205574;28;20059;-73
2022/04/28 00:39:47;;;;;;;15.77;8.68;;;9.70;99.90;;;9.74;83.29;102055.06;5202599;28;20047;-73
2022/04/28 00:42:21;;;;;;;14.20;8.27;;;9.70;99.90;;;9.72;83.40;102071.41;5205255;28;20746;-73
2022/04/28 00:44:53;;;;;;;14.43;8.70;;;9.70;99.90;;;9.70;83.42;102062.59;5205032;28;20052;-73
2022/04/28 00:50:38;;;;;;;16.35;8.40;;;9.60;99.90;;;9.69;83.38;102060.81;5205604;28;20052;-73
2022/04/28 00:53:14;;;;;;;13.65;8.80;;;9.60;99.90;;;9.65;83.41;102069.22;5198846;28;20037;-73
2022/04/28 00:55:47;;;;;;;17.83;9.27;;;9.60;99.90;;;9.63;83.50;102065.66;5205329;28;20042;-74
2022/04/28 00:58:20;;;;;;;17.77;9.10;;;9.60;99.90;;;9.60;83.42;102065.47;5204967;28;20049;-74
2022/04/28 01:00:54;;;;;;;14.23;8.85;;;9.60;99.90;;;9.58;83.20;102070.56;5204998;28;20049;-75
2022/04/28 01:03:30;;;;;;;15.55;8.60;;;9.50;99.90;;;9.54;82.96;102071.22;5200292;28;20479;-74
2022/04/28 01:06:02;;;;;;;17.17;9.18;;;9.50;99.90;;;9.50;83.45;102070.13;5200505;28;20045;-73
2022/04/28 01:08:35;;;;;;;17.20;9.00;;;9.50;99.90;;;9.48;83.33;102066.53;5204498;28;20053;-73
2022/04/28 01:11:07;;;;;;;13.93;8.95;;;9.50;99.90;;;9.47;83.85;102072.56;5205232;28;20049;-73
2022/04/28 01:13:41;;;;;;;18.00;8.07;;;9.40;99.90;;;9.48;83.62;102073.47;5205042;28;20425;-73
2022/04/28 01:16:13;;;;;;;15.00;8.32;;;9.40;99.90;;;9.50;83.33;102077.03;5204654;28;20041;-75
2022/04/28 01:18:45;;;;;;;14.93;7.55;;;9.40;99.90;;;9.47;83.28;102082.97;5205148;28;20093;-73
2022/04/28 01:21:20;;;;;;;15.15;8.20;;;9.40;99.90;;;9.40;82.79;102083.41;5204859;28;20054;-73
2022/04/28 01:23:56;;;;;;;16.45;9.00;;;9.40;99.90;;;9.33;83.01;102082.97;5204705;28;20045;-75
2022/04/28 01:26:29;;;;;;;16.75;8.70;;;9.30;99.90;;;9.26;82.82;102084.31;5204212;28;20041;-73
2022/04/28 01:29:01;;;;;;;15.05;8.40;;;9.30;99.90;;;9.22;83.27;102082.31;5205178;28;20480;-73
2022/04/28 01:31:33;;;;;;;13.40;8.23;;;9.20;99.90;;;9.18;83.22;102080.31;5204548;28;20064;-73
2022/04/28 01:34:05;;;;;;;16.33;8.18;;;9.20;99.90;;;9.15;83.39;102087.94;5199910;28;20090;-73
2022/04/28 01:36:38;;;;;;;14.73;8.38;;;9.20;99.90;;;9.15;83.62;102080.16;5197929;28;20050;-74
2022/04/28 01:39:11;;;;;;;15.70;8.13;;;9.10;99.90;;;9.14;83.58;102088.75;5202764;28;20490;-73
2022/04/28 01:41:43;;;;;;;15.73;8.32;;;9.10;99.90;;;9.10;83.67;102082.44;5205604;28;20058;-75
2022/04/28 01:44:15;;;;;;;15.35;8.35;;;9.10;99.90;;;9.06;83.73;102089.97;5205735;28;20060;-73
2022/04/28 01:46:47;;;;;;;13.48;8.10;;;9.10;99.90;;;9.05;83.87;102093.38;5205388;28;20486;-75
2022/04/28 01:49:19;;;;;;;16.65;7.95;;;9.10;99.90;;;9.01;83.52;102097.50;5204667;28;20434;-75
2022/04/28 01:55:00;;;;;;;15.32;8.32;;;9.00;99.90;;;8.94;83.58;102091.03;5203061;28;20049;-74
2022/04/28 01:57:33;;;;;;;12.43;7.78;;;8.90;99.90;;;8.90;83.77;102088.13;5204164;28;20053;-72
2022/04/28 02:00:08;;;;;;;15.93;8.85;;;8.90;99.90;;;8.85;84.03;102085.25;5204387;28;20037;-73
2022/04/28 02:02:40;;;;;;;16.20;7.78;;;8.90;99.90;;;8.82;84.26;102087.66;5203525;28;20429;-74
2022/04/28 02:05:14;;;;;;;16.40;9.00;;;8.80;99.90;;;8.81;84.37;102092.78;5204156;28;20041;-73
2022/04/28 02:07:47;;;;;;;16.27;8.75;;;8.80;99.90;;;8.77;84.53;102086.47;5203686;28;20041;-75
2022/04/28 02:10:19;;;;;;;14.20;7.90;;;8.80;99.90;;;8.77;84.62;102094.28;5204037;28;20042;-73
2022/04/28 02:12:52;;;;;;;16.40;9.05;;;8.80;99.90;;;8.74;84.24;102094.09;5203918;28;20042;-73
2022/04/28 02:15:24;;;;;;;16.40;8.70;;;8.80;99.90;;;8.73;84.45;102088.78;5204310;28;20049;-73
2022/04/28 02:17:56;;;;;;;14.98;8.30;;;8.80;99.90;;;8.72;84.82;102086.97;5204064;28;20056;-73
2022/04/28 02:20:29;;;;;;;17.52;9.20;;;8.70;99.90;;;8.67;84.37;102095.41;5204670;28;20514;-73
2022/04/28 02:23:02;;;;;;;16.05;8.68;;;8.70;99.90;;;8.63;84.65;102093.41;5205152;28;20049;-73
2022/04/28 02:25:34;;;;;;;19.15;8.90;;;8.70;99.90;;;8.61;84.49;102094.13;5205500;28;20045;-73
2022/04/28 02:28:07;;;;;;;15.75;8.80;;;8.60;99.90;;;8.59;84.91;102099.19;5205374;28;20045;-73
2022/04/28 02:30:39;;;;;;;17.02;9.07;;;8.60;99.90;;;8.57;84.89;102097.31;5204901;28;20501;-74
2022/04/28 02:33:11;;;;;;;15.43;8.80;;;8.60;99.90;;;8.55;84.51;102104.13;5204191;28;20505;-74
2022/04/28 02:35:43;;;;;;;17.15;8.85;;;8.60;99.90;;;8.53;85.07;102097.91;5204387;28;20516;-72
2022/04/28 02:38:16;;;;;;;16.80;9.63;;;8.60;99.90;;;8.53;85.18;102097.91;5204706;28;20053;-73
2022/04/28 02:40:48;;;;;;;16.20;9.25;;;8.60;99.90;;;8.53;84.77;102103.13;5208379;28;20045;-73
2022/04/28 02:43:20;;;;;;;16.95;8.93;;;8.50;99.90;;;8.49;84.73;102098.53;5206035;28;20063;-73
2022/04/28 02:45:53;;;;;;;16.95;9.35;;;8.50;99.90;;;8.47;84.59;102092.31;5208651;28;20052;-72
2022/04/28 02:48:25;;;;;;;16.83;9.75;;;8.50;99.90;;;8.42;84.83;102095.56;5208278;28;20055;-72
2022/04/28 02:50:57;;;;;;;18.08;9.52;;;8.40;99.90;;;8.47;85.16;102094.94;5208446;28;20059;-74
2022/04/28 02:53:30;;;;;;;18.58;9.63;;;8.50;99.90;;;8.48;85.06;102088.97;5208014;28;20055;-73
2022/04/28 02:56:02;;;;;;;16.55;9.30;;;8.50;99.90;;;8.46;85.06;102098.34;5208588;28;20053;-73
2022/04/28 02:58:35;;;;;;;19.63;10.07;;;8.50;99.90;;;8.41;84.49;102091.16;5208153;28;20077;-73
2022/04/28 03:01:07;;;;;;;17.15;9.00;;;8.40;99.90;;;8.37;84.63;102090.84;5208023;28;20056;-73
2022/04/28 03:03:39;;;;;;;17.40;8.63;;;8.40;99.90;;;8.33;84.80;102094.91;5207566;28;20509;-74
2022/04/28 03:11:53;;;;;;;18.40;8.20;;;8.30;99.90;;;8.18;84.49;102095.63;5207576;28;20057;-75
2022/04/28 03:14:25;;;;;;;19.33;9.60;;;8.20;99.90;;;8.14;84.95;102097.09;5208089;28;20049;-73
2022/04/28 03:16:57;;;;;;;23.38;9.52;;;8.20;99.90;;;8.10;84.83;102089.94;5208041;28;20046;-73
2022/04/28 03:19:29;;;;;;;17.90;9.50;;;8.20;99.90;;;8.08;84.73;102099.31;5208172;28;20050;-74
2022/04/28 03:22:01;;;;;;;20.40;9.60;;;8.10;99.90;;;8.07;84.74;102094.91;5207159;28;20069;-72
2022/04/28 03:24:34;;;;;;;19.67;9.85;;;8.10;99.90;;;8.06;84.86;102096.63;5207592;28;20053;-74
2022/04/28 03:27:06;;;;;;;17.02;9.18;;;8.10;99.90;;;8.05;84.96;102105.22;5207896;28;20414;-73
2022/04/28 03:29:38;;;;;;;17.67;9.38;;;8.10;99.90;;;8.05;85.57;102104.31;5207432;28;20046;-73
2022/04/28 03:32:10;;;;;;;19.20;9.82;;;8.10;99.90;;;8.04;85.40;102113.81;5207413;28;20139;-75
2022/04/28 03:34:42;;;;;;;20.55;10.18;;;8.10;99.90;;;8.01;85.45;102107.50;5227732;22;20052;-82
2022/04/28 03:37:15;;;;;;;17.75;9.45;;;8.10;99.90;;;7.97;84.83;102110.72;5211307;28;20073;-80
2022/04/28 03:39:48;;;;;;;17.05;8.70;;;8.00;99.90;;;7.89;84.78;102108.50;5215847;28;20140;-83
2022/04/28 03:42:20;;;;;;;17.48;9.55;;;8.00;99.90;;;7.88;85.30;102113.56;5215902;28;20049;-83
2022/04/28 03:44:52;;;;;;;20.55;8.95;;;8.00;99.90;;;7.84;85.50;102104.69;5216950;28;20050;-82
2022/04/28 03:47:24;;;;;;;17.70;10.20;;;7.90;99.90;;;7.85;85.63;102111.69;5217954;28;20059;-81
2022/04/28 03:49:56;;;;;;;18.38;9.05;;;7.90;99.90;;;7.84;85.78;102107.28;5216295;28;20049;-81
2022/04/28 03:52:28;;;;;;;17.70;10.27;;;7.90;99.90;;;7.85;86.05;102111.69;5217048;28;20045;-83
2022/04/28 03:55:01;;;;;;;20.45;10.75;;;7.90;99.90;;;7.84;85.45;102109.91;5215996;28;20103;-82
2022/04/28 03:57:34;;;;;;;19.17;9.77;;;7.90;99.90;;;7.83;85.54;102115.88;5214080;28;20053;-82
2022/04/28 04:00:08;;;;;;;20.55;10.07;;;7.90;99.90;;;7.79;85.53;102116.47;5213834;28;20061;-82
2022/04/28 04:02:40;;;;;;;17.25;9.38;;;7.90;99.90;;;7.75;85.49;102114.44;5212994;28;20052;-84
2022/04/28 04:05:12;;;;;;;19.05;10.50;;;7.80;99.90;;;7.75;85.63;102118.75;5225559;28;20064;-84
2022/04/28 04:07:44;;;;;;;18.15;9.60;;;7.80;99.90;;;7.75;85.70;102119.66;5216829;28;20050;-80
2022/04/28 04:10:18;;;;;;;20.88;9.98;;;7.80;99.90;;;7.74;85.67;102122.16;5212205;28;20060;-82
2022/04/28 04:12:50;;;;;;;21.05;9.82;;;7.80;99.90;;;7.71;85.23;102122.84;5212593;28;20052;-82
2022/04/28 04:15:22;;;;;;;18.38;10.43;;;7.80;99.90;;;7.67;85.44;102119.94;5212218;28;20041;-82
2022/04/28 04:17:54;;;;;;;21.17;10.38;;;7.70;99.90;;;7.66;85.58;102123.34;5212329;28;20069;-82
2022/04/28 04:20:27;;;;;;;21.45;9.70;;;7.70;99.90;;;7.62;85.53;102123.09;5212610;28;20053;-84
2022/04/28 04:22:59;;;;;;;21.63;10.50;;;7.70;99.90;;;7.66;85.85;102133.72;5211478;28;20091;-82
2022/04/28 04:25:32;;;;;;;21.95;10.02;;;7.70;99.90;;;7.64;85.67;102130.13;5211986;28;20136;-82
2022/04/28 04:28:05;;;;;;;18.73;10.23;;;7.70;99.90;;;7.65;85.85;102132.81;5211671;28;20124;-82
2022/04/28 04:33:27;;;;;;;23.60;10.55;;;7.70;99.90;;;7.68;86.08;102132.13;5211964;28;20112;-82
2022/04/28 04:35:59;;;;;;;21.05;10.48;;;7.70;99.90;;;7.72;86.02;102136.72;5210950;28;20137;-83
2022/04/28 04:38:31;;;;;;;19.33;10.13;;;7.70;99.90;;;7.75;85.83;102136.91;5224182;28;20057;-84
2022/04/28 04:41:05;;;;;;;18.88;10.35;;;7.80;99.90;;;7.79;85.19;102147.63;5233264;28;20079;-85
2022/04/28 04:43:38;;;;;;;20.65;9.90;;;7.80;99.90;;;7.77;85.11;102149.22;5232401;28;20041;-85
2022/04/28 04:46:09;;;;;;;18.13;10.00;;;7.80;99.90;;;7.77;85.56;102149.22;5219399;28;20045;-82
2022/04/28 04:48:41;;;;;;;22.45;10.50;;;7.80;99.90;;;7.77;85.42;102148.31;5215634;28;20487;-83
2022/04/28 04:51:13;;;;;;;20.75;10.32;;;7.80;99.90;;;7.81;85.94;102148.63;5213048;28;20144;-83
2022/04/28 04:53:45;;;;;;;20.50;10.57;;;7.90;99.90;;;7.93;85.70;102155.44;5212489;28;20446;-84
2022/04/28 04:56:18;;;;;;;20.35;10.73;;;7.90;99.90;;;8.02;85.58;102156.03;5212786;28;20079;-82
2022/04/28 04:58:50;;;;;;;22.25;9.82;;;8.00;99.90;;;8.07;85.36;102163.34;5212313;28;20413;-82
2022/04/28 05:01:22;;;;;;;18.30;9.43;;;8.10;99.90;;;8.17;85.56;102172.66;5211751;28;20052;-82
2022/04/28 05:03:55;;;;;;;22.08;10.38;;;8.20;99.90;;;8.25;85.41;102170.56;5216859;28;20053;-82
2022/04/28 05:06:27;;;;;;;20.05;10.25;;;8.30;99.90;;;8.27;85.12;102175.06;5216104;28;20053;-83
2022/04/28 05:08:59;;;;;;;17.88;9.13;;;8.30;99.90;;;8.28;84.87;102175.94;5214204;28;20049;-79
2022/04/28 05:11:33;;;;;;;20.88;10.15;;;8.30;99.90;;;8.27;85.07;102180.25;5214340;28;20123;-83
2022/04/28 05:14:05;;;;;;;22.45;11.32;;;8.30;99.90;;;8.27;84.99;102169.84;5216515;28;20045;-83
2022/04/28 05:16:37;;;;;;;18.45;10.70;;;8.40;99.90;;;8.36;85.52;102177.41;5217299;28;20054;-82
2022/04/28 05:19:09;;;;;;;21.35;11.07;;;8.40;99.90;;;8.40;85.46;102182.00;5212057;28;20049;-82
2022/04/28 05:21:41;;;;;;;24.65;11.13;;;8.50;99.90;;;8.69;86.63;102181.28;5212384;28;20526;-82
2022/04/28 05:24:13;;;;;;;26.25;12.75;;;8.60;99.90;;;9.12;87.05;102189.19;5211096;28;20420;-82
2022/04/28 05:26:46;;;;;;;21.38;11.35;;;8.90;99.90;;;9.64;86.41;102192.41;5211503;28;20056;-81
2022/04/28 05:29:19;;;;;;;20.45;9.50;;;9.40;99.90;;;10.10;84.39;102196.06;5211762;28;20392;-81
2022/04/28 05:31:51;;;;;;;24.42;11.60;;;9.70;99.90;;;10.52;81.98;102197.69;5209993;28;20499;-82
2022/04/28 05:34:23;;;;;;;21.73;10.98;;;10.10;99.90;;;10.90;78.91;102205.91;5210715;28;20045;-82
2022/04/28 05:36:55;;;;;;;19.85;10.80;;;10.50;99.90;;;11.25;76.46;102205.22;5210855;28;20041;-81
2022/04/28 05:39:28;;;;;;;19.30;11.05;;;10.80;99.90;;;11.57;74.52;102205.22;5211104;28;20084;-79
2022/04/28 05:42:02;;;;;;;20.38;11.13;;;11.20;99.90;;;11.95;72.82;102203.78;5214772;28;20135;-81
2022/04/28 05:47:25;;;;;;;20.90;10.90;;;11.80;99.90;;;12.67;69.13;102205.66;5211584;28;20140;-82
2022/04/28 05:49:58;;;;;;;19.67;11.15;;;12.20;99.90;;;13.02;66.88;102214.28;5210230;28;20091;-82
2022/04/28 05:52:29;;;;;;;20.15;10.40;;;12.50;99.90;;;13.38;65.99;102219.50;5211572;28;20129;-81
2022/04/28 05:55:02;;;;;;;18.38;10.55;;;12.80;99.90;;;13.64;64.80;102218.06;5212274;28;20052;-81
2022/04/28 05:57:35;;;;;;;20.73;10.32;;;13.10;99.90;;;13.94;63.23;102216.75;5213908;28;20052;-82
2022/04/28 06:00:09;;;;;;;18.65;10.38;;;13.40;99.90;;;14.18;62.26;102224.81;5217411;28;20127;-80
2022/04/28 06:02:41;;;;;;;21.08;9.88;;;13.60;99.60;;;14.23;61.02;102223.28;5220493;28;20048;-83
2022/04/28 06:05:13;;;;;;;17.10;9.88;;;13.80;99.10;;;14.46;60.42;102225.97;5225210;28;20041;-82
2022/04/28 06:07:46;;;;;;;19.25;10.32;;;14.00;98.30;;;14.60;59.20;102215.22;5231582;28;20092;-81
2022/04/28 06:10:18;;;;;;;18.63;10.32;;;14.10;97.60;;;14.75;58.96;102220.22;5231067;28;20081;-80
2022/04/28 06:12:51;;;;;;;21.33;11.52;;;14.30;97.20;;;15.05;58.26;102222.25;5221796;28;20072;-81
2022/04/28 06:15:24;;;;;;;17.77;9.77;;;14.50;96.80;;;15.37;57.59;102229.63;5217041;28;20060;-82
2022/04/28 06:17:56;;;;;;;20.77;10.00;;;14.70;96.40;;;15.63;56.58;102227.13;5217203;28;20042;-80
2022/04/28 06:20:28;;;;;;;28.55;10.40;;;14.90;95.70;;;15.78;55.63;102232.97;5213818;28;20057;-80
2022/04/28 06:23:00;;;;;;;26.48;10.82;;;15.10;94.80;;;15.81;54.97;102229.53;5208152;28;20514;-81
2022/04/28 06:25:32;;;;;;;21.55;10.75;;;15.30;93.60;;;15.99;54.24;102239.00;5209123;28;20042;-79
2022/04/28 06:28:06;;;;;;;21.88;10.52;;;15.50;92.70;;;16.35;53.42;102243.72;5207995;28;20048;-80
2022/04/28 06:30:38;;;;;;;18.63;10.30;;;15.80;92.00;;;16.59;53.22;102232.25;5208121;28;20116;-80
2022/04/28 06:33:11;;;;;;;21.48;10.73;;;16.00;91.80;;;16.72;52.14;102234.47;5208595;28;20060;-78
2022/04/28 06:35:43;;;;;;;17.77;9.82;;;16.20;90.50;;;16.96;51.01;102239.63;5207670;28;20140;-80
2022/04/28 06:38:15;;;;;;;22.25;11.07;;;16.30;88.70;;;17.07;50.93;102232.94;5207308;28;20461;-80
2022/04/28 06:40:47;;;;;;;19.52;10.75;;;16.50;88.30;;;17.26;50.92;102237.91;5207463;28;20161;-79
2022/04/28 06:43:20;;;;;;;18.30;11.10;;;16.60;88.50;;;17.45;50.84;102247.28;5207375;28;20362;-78
2022/04/28 06:48:42;;;;;;;20.48;10.77;;;16.90;86.30;;;17.81;49.53;102242.22;5207483;28;20122;-78
2022/04/28 06:51:14;;;;;;;18.83;10.13;;;17.10;85.50;;;17.93;49.31;102246.94;5206750;28;20046;-79
2022/04/28 06:53:46;;;;;;;18.35;10.05;;;17.20;84.60;;;17.93;48.91;102252.22;5206188;28;20422;-79
2022/04/28 06:56:18;;;;;;;18.88;11.45;;;17.30;83.40;;;18.05;49.05;102247.25;5206591;28;20064;-78
2022/04/28 06:58:51;;;;;;;20.55;10.13;;;17.40;83.50;;;18.16;48.16;102251.09;5206432;28;20072;-79
2022/04/28 07:01:23;;;;;;;20.35;10.98;;;17.50;81.80;;;18.31;48.08;102260.25;5206292;28;20053;-82
2022/04/28 07:03:55;;;;;;;21.15;11.70;;;17.60;81.40;;;18.50;47.17;102257.22;5211400;28;20056;-79
2022/04/28 07:06:27;;;;;;;17.55;10.10;;;17.70;79.80;;;18.47;46.73;102254.53;5206901;28;20049;-80
2022/04/28 07:08:59;;;;;;;22.75;11.57;;;17.80;78.60;;;18.53;46.69;102265.25;5207978;28;20053;-78
2022/04/28 07:11:31;;;;;;;18.20;11.55;;;17.80;78.20;;;18.74;46.70;102261.38;5207965;28;20052;-80
2022/04/28 07:14:04;;;;;;;21.00;11.80;;;18.00;78.70;;;18.95;46.53;102267.19;5206587;28;20049;-79
2022/04/28 07:16:36;;;;;;;22.83;10.45;;;18.20;77.90;;;19.25;45.72;102262.59;5206799;28;20049;-78
2022/04/28 07:19:08;;;;;;;23.98;11.07;;;18.40;76.70;;;19.52;45.35;102264.06;5207325;28;20136;-79
2022/04/28 07:21:40;;;;;;;19.50;11.27;;;18.70;76.20;;;19.65;44.61;102267.91;5208318;28;20522;-78
2022/04/28 07:24:12;;;;;;;21.80;11.52;;;18.80;74.70;;;19.77;44.35;102274.34;5209304;28;20137;-79
2022/04/28 07:26:44;;;;;;;16.35;9.73;;;18.90;73.90;;;19.91;45.12;102281.66;5211554;28;20060;-78
2022/04/28 07:29:18;;;;;;;19.23;10.50;;;19.10;75.00;;;19.87;45.45;102285.97;5208397;28;20048;-82
2022/04/28 07:31:49;;;;;;;17.77;9.98;;;19.10;75.40;;;19.87;44.59;102280.69;5211068;28;20047;-78
2022/04/28 07:34:21;;;;;;;22.63;11.60;;;19.10;73.90;;;20.09;44.13;102295.25;5214167;28;20071;-78
2022/04/28 07:36:53;;;;;;;17.52;10.43;;;19.20;73.30;;;20.19;43.44;102283.97;5222022;28;20042;-80
2022/04/28 07:39:25;;;;;;;20.75;10.07;;;19.30;71.90;;;20.40;43.28;102285.22;5214810;28;20423;-78
2022/04/28 07:41:57;;;;;;;18.63;10.32;;;19.40;71.80;;;20.53;43.44;102288.13;5202133;28;20053;-76
2022/04/28 07:44:30;;;;;;;18.00;10.60;;;19.60;72.10;;;20.53;43.61;102284.59;5205713;28;20518;-78
2022/04/28 07:47:03;;;;;;;18.65;10.48;;;19.60;71.90;;;20.49;44.49;102285.44;5206733;28;20141;-77
2022/04/28 07:49:36;;;;;;;22.20;10.75;;;19.50;73.20;;;20.58;43.82;102280.28;5207015;28;20053;-77
2022/04/28 07:52:08;;;;;;;19.52;10.40;;;19.50;72.60;;;20.70;44.03;102292.84;5206329;28;20050;-77
2022/04/28 07:54:40;;;;;;;22.75;11.68;;;19.60;72.90;;;20.88;43.58;102297.56;5206577;28;20419;-77
2022/04/28 07:57:12;;;;;;;18.27;11.50;;;19.70;72.60;;;20.89;43.21;102299.34;5203627;28;20041;-76
2022/04/28 07:59:46;;;;;;;21.77;10.90;;;19.70;71.70;;;21.16;42.85;102299.78;5208440;28;20069;-77
2022/04/28 08:02:18;;;;;;;19.67;10.45;;;19.80;71.60;;;21.28;42.01;102299.06;5208150;28;20045;-77
2022/04/28 08:04:50;;;;;;;20.00;10.32;;;20.00;70.70;;;21.33;42.30;102292.13;5208341;28;20053;-77
2022/04/28 08:07:22;;;;;;;19.15;10.63;;;19.90;71.10;;;21.46;41.84;102287.88;5208956;28;20123;-77
2022/04/28 08:09:54;;;;;;;20.27;10.95;;;19.90;70.60;;;21.79;41.42;102298.91;5208932;28;20053;-77
2022/04/28 08:12:26;;;;;;;21.80;10.82;;;20.00;70.60;;;22.28;40.33;102302.13;5206246;28;20046;-78
2022/04/28 08:14:59;;;;;;;19.38;10.20;;;20.20;70.00;;;22.63;39.59;102290.97;5205084;28;20047;-79
2022/04/28 08:17:31;;;;;;;17.80;10.38;;;20.40;69.40;;;23.23;37.83;102295.00;5209244;28;20541;-77
2022/04/28 08:20:05;;;;;;;18.08;10.45;;;20.70;67.70;;;23.92;36.66;102301.56;5208976;28;20049;-78
2022/04/28 08:22:37;;;;;;;18.80;11.20;;;21.00;66.80;;;24.40;35.76;102299.94;5208559;28;20042;-77
2022/04/28 08:25:09;;;;;;;18.90;11.32;;;21.30;65.20;;;24.70;35.56;102303.50;5208553;28;20049;-78
2022/04/28 08:27:41;;;;;;;18.42;10.73;;;21.50;65.60;;;25.24;35.32;102309.75;5208641;28;20060;-78
2022/04/28 08:30:15;;;;;;;21.25;11.18;;;21.60;65.80;;;25.78;33.65;102310.47;5208864;28;20499;-78
2022/04/28 08:32:47;;;;;;;;;;;21.90;64.10;;;26.79;32.79;102308.94;5208273;28;20462;-77
2022/04/28 08:35:19;;;;;;;17.42;9.98;;;22.40;63.70;;;27.65;30.89;102318.81;5206919;28;19921;-78
2022/04/28 08:37:51;;;;;;;17.02;10.60;;;23.20;61.30;;;28.47;30.35;102308.75;5208112;28;20045;-78
2022/04/28 08:40:23;;;;;;;16.55;10.73;;;23.90;60.40;;;29.08;29.16;102317.59;5208125;28;20060;-77
2022/04/28 08:42:59;;;;;;;17.65;10.57;;;24.60;58.00;;;29.37;28.57;102319.75;5207707;28;20053;-78
2022/04/28 08:46:50;;;;;;;16.50;10.05;;;25.00;57.00;;;29.72;28.39;102319.03;5203762;28;20126;-81
2022/04/28 08:48:33;;;;;;;18.98;10.50;;;25.40;56.10;;;30.26;27.09;102324.19;5208477;28;20049;-80
2022/04/28 08:51:05;;;;;;;15.48;9.65;;;26.00;54.80;;;30.53;26.83;102320.81;5212894;28;20411;-82
2022/04/28 08:53:38;;;;;;;16.98;10.55;;;26.30;53.80;;;30.89;26.26;102318.13;5210433;28;20049;-80
2022/04/28 08:56:10;;;;;;;14.98;9.82;;;26.70;53.30;;;30.92;26.35;102318.06;5210435;28;20053;-79
2022/04/28 08:58:42;;;;;;;16.67;11.13;;;26.80;52.60;;;30.47;26.37;102325.47;5216764;28;20046;-79
2022/04/28 09:01:15;;;;;;;17.58;10.13;;;26.60;51.60;;;30.07;27.02;102323.69;5211543;28;20395;-81
2022/04/28 09:03:47;;;;;;;20.73;11.15;;;26.30;52.30;;;30.03;27.86;102321.97;5211134;28;20045;-81
2022/04/28 09:06:21;;;;;;;17.83;10.45;;;26.30;53.70;;;30.04;28.32;102317.47;5210553;28;20492;-82
2022/04/28 09:08:53;;;;;;;17.02;10.85;;;26.30;53.80;;;29.58;27.78;102315.78;5210538;28;20498;-81
2022/04/28 09:11:26;;;;;;;18.05;11.45;;;26.20;52.70;;;29.08;28.45;102321.19;5207756;28;20050;-78
2022/04/28 09:14:11;;;;;;;16.10;10.77;;;25.90;52.90;;;28.57;28.74;102325.63;5204619;28;20057;-78
2022/04/28 09:16:47;;;;;;;19.52;10.75;;;25.70;53.40;;;27.88;29.41;102314.97;5210069;28;20395;-78
2022/04/28 09:19:22;;;;;;;18.92;10.43;;;25.40;53.00;;;27.41;31.25;102311.94;5207817;28;20085;-79
2022/04/28 09:21:57;;;;;;;19.95;12.02;;;25.20;54.30;;;26.66;31.00;102307.25;5206907;28;20049;-78
2022/04/28 09:24:29;;;;;;;17.65;11.60;;;24.80;53.30;;;25.79;32.61;102310.47;5207834;28;20045;-78
2022/04/28 09:27:02;;;;;;;19.75;11.45;;;24.30;54.50;;;25.20;33.61;102310.63;5208565;28;20065;-78
2022/04/28 09:29:36;;;;;;;20.90;11.50;;;24.00;54.90;;;24.61;33.98;102302.63;5208144;28;20047;-79
2022/04/28 09:32:15;;;;;;;19.50;11.63;;;23.70;55.00;;;24.13;34.62;102298.09;5207275;28;20049;-78
2022/04/28 09:37:22;;;;;;;20.90;12.52;;;23.10;56.10;;;23.80;35.69;102293.56;5183617;28;20050;-72
2022/04/28 09:42:44;;;;;;;29.17;14.93;;;22.80;55.90;;;23.81;36.43;102298.88;5185689;28;20132;-72
2022/04/28 09:45:20;;;;;;;21.35;11.35;;;22.90;57.30;;;23.85;35.61;102301.53;5186072;28;20053;-73
2022/04/28 09:48:01;;;;;;;19.38;10.07;;;22.90;57.10;;;23.75;34.67;102289.97;5185813;28;20062;-72
2022/04/28 09:50:34;;;;;;;20.95;10.98;;;22.80;55.70;;;23.71;34.56;102290.84;5185904;28;20054;-73
2022/04/28 09:53:08;;;;;;;17.95;10.20;;;22.80;55.40;;;23.60;34.99;102290.75;5185421;28;20513;-72
2022/04/28 09:55:41;;;;;;;18.15;9.77;;;22.80;55.80;;;23.68;35.43;102289.06;5185576;28;20057;-71
2022/04/28 09:58:15;;;;;;;18.02;11.15;;;22.80;56.00;;;23.59;34.66;102288.09;5185976;28;20526;-72
2022/04/28 10:00:47;;;;;;;18.08;9.63;;;22.70;55.30;;;23.46;35.09;102282.69;5186074;28;20052;-72
2022/04/28 10:03:21;;;;;;;17.25;9.43;;;22.60;55.80;;;23.39;34.33;102280.88;5185590;28;20068;-72
2022/04/28 10:05:53;;;;;;;19.45;10.25;;;22.50;54.90;;;23.38;34.53;102276.44;5185615;28;20487;-72
2022/04/28 10:08:26;;;;;;;17.55;9.77;;;22.50;55.10;;;23.44;33.97;102278.25;5185829;28;20053;-71
2022/04/28 10:10:59;;;;;;;16.58;9.00;;;22.50;54.70;;;23.56;34.38;102273.88;5185509;28;20056;-72
2022/04/28 10:13:32;;;;;;;20.65;12.57;;;22.60;55.30;;;23.74;34.66;102280.22;5185672;28;20056;-71
2022/04/28 10:16:09;;;;;;;18.55;10.68;;;22.70;55.90;;;23.75;33.90;102274.88;5185361;28;20052;-72
2022/04/28 10:18:51;;;;;;;19.45;10.52;;;22.80;54.70;;;23.60;34.28;102271.22;5185411;28;20053;-72
2022/04/28 10:21:32;;;;;;;17.23;9.90;;;22.70;55.00;;;23.59;33.81;102273.00;5185434;28;20081;-71
2022/04/28 10:32:57;;;;;;;18.05;9.43;;;22.70;55.00;;;23.74;34.86;102269.56;5184987;28;20053;-72
2022/04/28 10:35:45;;;;;;;13.43;7.82;;;22.80;55.60;;;23.85;34.19;102264.25;5185449;28;20054;-58
2022/04/28 10:38:23;;;;;;;18.30;9.60;;;22.80;55.10;;;23.79;34.63;102270.44;5184619;28;20056;-57
2022/04/28 10:41:00;;;;;;;16.65;8.32;;;22.90;55.40;;;23.81;35.24;102269.59;5184840;28;20052;-57
2022/04/28 10:43:39;;;;;;;13.30;7.28;;;22.80;56.10;;;23.96;35.48;102268.72;5185129;28;20053;-60
2022/04/28 10:46:34;;;;;;;15.50;9.00;;;22.90;56.40;;;24.04;34.43;102269.63;5300180;23;20136;-56
2022/04/28 10:49:06;;;;;;;15.35;6.72;;;23.10;55.50;;;24.07;34.77;102260.78;5179111;28;20504;-56
2022/04/28 10:51:44;;;;;;;17.42;8.32;;;23.10;55.40;;;23.96;34.76;102259.84;5183955;28;20068;-56
2022/04/28 10:54:21;;;;;;;14.43;8.00;;;23.10;55.30;;;23.96;35.07;102263.41;5184016;28;20054;-56
2022/04/28 10:57:03;;;;;;;12.15;6.90;;;23.00;55.90;;;24.01;35.26;102256.31;5183696;28;20045;-57
2022/04/28 10:59:39;;;;;;;12.07;6.60;;;23.10;55.90;;;24.20;35.76;102261.69;5374967;22;20021;-59
2022/04/28 11:02:54;;;;;;;14.98;8.80;;;23.20;56.90;;;24.33;35.94;102256.41;5205436;28;20073;-60
2022/04/28 11:05:42;;;;;;;16.27;8.57;;;23.30;57.00;;;24.39;36.10;102251.94;5208478;28;20421;-59
2022/04/28 11:08:26;;;;;;;19.00;9.20;;;23.40;56.90;;;24.28;35.42;102249.25;5224807;28;20098;-60
2022/04/28 11:11:13;;;;;;;18.50;9.25;;;23.30;56.40;;;24.22;34.92;102249.25;5228944;28;20055;-59